Time;durP1;ratioP1;P1;durP2;ratioP2;P2;SDS_P1;SDS_P2;PMS_P1;PMS_P2;Temp;Humidity;BMP_temperature;BMP_pressure;BME280_temperature;BME280_humidity;BME280_pressure;Samples;Min_cycle;Max_cycle;Signal;HPM_P1;HPM_P2
2022/06/09 00:05:06;;;;;;;27.15;21.37;;;;;;;17.31;100.00;98299.39;4088674;85;21052;-86
2022/06/09 00:11:13;;;;;;;29.50;22.35;;;;;;;17.26;100.00;98299.92;4078531;86;22056;-86
2022/06/09 00:17:15;;;;;;;30.77;20.85;;;;;;;17.27;100.00;98309.00;4083201;86;21043;-86
2022/06/09 00:23:17;;;;;;;30.90;19.12;;;;;;;17.24;100.00;98317.58;4073904;86;22283;-89
2022/06/09 00:29:19;;;;;;;19.90;9.58;;;;;;;17.18;100.00;98295.19;4074140;86;21074;-89
2022/06/09 00:35:21;;;;;;;13.45;9.65;;;;;;;17.07;100.00;98298.05;4065000;86;21133;-90
2022/06/09 00:41:25;;;;;;;21.15;10.43;;;;;;;16.94;100.00;98295.84;4057157;86;21567;-90
2022/06/09 00:47:31;;;;;;;13.58;10.95;;;;;;;16.87;100.00;98289.88;4029255;87;22227;-90
2022/06/09 00:53:37;;;;;;;10.60;9.07;;;;;;;16.78;100.00;98286.16;4098497;85;21136;-89
2022/06/09 00:59:43;;;;;;;14.33;10.90;;;;;;;16.61;100.00;98277.11;4093748;85;21062;-90
2022/06/09 01:05:47;;;;;;;19.40;14.13;;;;;;;16.53;100.00;98266.65;4087425;85;21081;-90
2022/06/09 01:11:55;;;;;;;20.13;14.50;;;;;;;16.52;100.00;98254.81;4092857;85;21428;-88
2022/06/09 01:18:21;;;;;;;19.48;13.45;;;;;;;16.53;100.00;98227.97;4095778;85;21104;-89
2022/06/09 01:25:06;;;;;;;12.97;11.30;;;;;;;16.53;100.00;98205.27;4073552;86;21320;-91
2022/06/09 01:31:37;;;;;;;11.70;8.80;;;;;;;16.52;100.00;98216.13;4080810;86;21039;-89
2022/06/09 01:37:44;;;;;;;11.12;7.58;;;;;;;16.44;100.00;98230.54;4068362;86;21417;-88
2022/06/09 01:43:47;;;;;;;8.75;6.47;;;;;;;16.33;100.00;98227.26;4094105;85;21107;-88
2022/06/09 01:49:53;;;;;;;6.87;5.25;;;;;;;16.24;100.00;98222.94;4097705;85;21603;-87
2022/06/09 01:56:15;;;;;;;6.95;4.97;;;;;;;16.16;100.00;98222.31;4094758;85;21005;-88
2022/06/09 02:02:21;;;;;;;8.55;5.65;;;;;;;16.06;100.00;98234.39;4093581;85;21072;-88
2022/06/09 02:08:24;;;;;;;8.70;4.95;;;;;;;16.03;100.00;98221.45;4029364;87;21102;-87
2022/06/09 02:14:28;;;;;;;7.30;4.87;;;;;;;15.97;100.00;98206.61;4086686;85;22123;-88
2022/06/09 02:20:31;;;;;;;10.45;4.70;;;;;;;15.89;100.00;98214.08;4089391;85;21048;-89
2022/06/09 02:26:32;;;;;;;9.58;5.33;;;;;;;15.87;100.00;98208.20;4085880;85;21086;-87
2022/06/09 02:32:34;;;;;;;8.48;6.40;;;;;;;15.91;100.00;98211.06;4065623;85;21626;-88
2022/06/09 02:38:35;;;;;;;7.70;5.47;;;;;;;15.89;100.00;98206.59;4084416;85;21031;-87
2022/06/09 02:44:39;;;;;;;10.93;5.05;;;;;;;15.80;100.00;98209.76;3992089;85;2359422;-88
2022/06/09 02:50:46;;;;;;;12.63;5.53;;;;;;;15.81;100.00;98220.96;4008654;87;23660;-88
2022/06/09 02:56:47;;;;;;;5.65;4.30;;;;;;;15.76;100.00;98226.39;3923837;88;21133;-88
2022/06/09 03:02:58;;;;;;;6.35;4.92;;;;;;;15.69;100.00;98232.83;4031472;86;21109;-89
2022/06/09 03:09:00;;;;;;;4.58;4.10;;;;;;;15.57;100.00;98223.05;4064088;85;21349;-87
2022/06/09 03:15:07;;;;;;;7.55;4.42;;;;;;;15.40;100.00;98220.05;4083290;85;21097;-87
2022/06/09 03:21:06;;;;;;;7.10;5.37;;;;;;;15.36;100.00;98224.23;3966154;88;21080;-87
2022/06/09 03:27:09;;;;;;;9.60;5.55;;;;;;;15.36;100.00;98224.23;4040306;86;21031;-87
2022/06/09 03:33:11;;;;;;;6.83;5.90;;;;;;;15.32;100.00;98215.27;4064156;86;22352;-87
2022/06/09 03:39:13;;;;;;;11.03;7.20;;;;;;;15.27;100.00;98222.64;4040956;86;21683;-88
2022/06/09 03:45:14;;;;;;;6.70;5.35;;;;;;;15.20;100.00;98217.28;4005112;87;21451;-87
2022/06/09 03:51:16;;;;;;;7.17;6.05;;;;;;;15.22;100.00;98198.94;4040740;86;21044;-87
2022/06/09 03:57:18;;;;;;;8.05;6.55;;;;;;;15.39;100.00;98208.86;3964874;88;21515;-87
2022/06/09 04:03:20;;;;;;;8.05;5.95;;;;;;;15.38;100.00;98212.80;3984630;87;21071;-87
2022/06/09 04:09:21;;;;;;;9.28;6.45;;;;;;;15.38;100.00;98215.56;3949921;88;21157;-87
2022/06/09 04:15:23;;;;;;;10.58;6.92;;;;;;;15.38;100.00;98212.21;3943631;88;21146;-88
2022/06/09 04:21:24;;;;;;;10.03;7.17;;;;;;;15.45;100.00;98209.32;4014746;87;21151;-87
2022/06/09 04:27:25;;;;;;;9.48;7.37;;;;;;;15.47;100.00;98205.52;4008227;87;21169;-86
2022/06/09 04:33:27;;;;;;;14.78;6.92;;;;;;;15.53;100.00;98210.70;4052125;86;21144;-86
2022/06/09 04:39:38;;;;;;;10.95;7.35;;;;;;;15.64;100.00;98211.88;4047255;86;21544;-86
2022/06/09 04:45:42;;;;;;;10.10;7.62;;;;;;;15.75;100.00;98211.05;3958443;88;21035;-86
2022/06/09 04:51:46;;;;;;;13.32;7.72;;;;;;;15.86;100.00;98211.59;4017203;87;21074;-87
2022/06/09 04:57:48;;;;;;;10.68;8.30;;;;;;;15.92;100.00;98211.84;3946310;88;21612;-87
2022/06/09 05:04:22;;;;;;;11.80;9.40;;;;;;;15.98;100.00;98212.30;4062784;86;21108;-87
2022/06/09 05:23:44;;;;;;;12.78;10.05;;;;;;;16.40;100.00;98220.16;4055203;86;21544;-85
2022/06/09 05:29:45;;;;;;;15.40;10.50;;;;;;;16.53;100.00;98220.47;4015993;87;21518;-84
2022/06/09 05:35:47;;;;;;;15.40;11.20;;;;;;;16.66;100.00;98213.64;4044808;86;21016;-85
2022/06/09 05:48:11;;;;;;;30.90;20.27;;;;;;;16.85;100.00;98234.23;4016150;87;21100;-86
2022/06/09 05:54:12;;;;;;;29.42;19.25;;;;;;;16.94;100.00;98235.77;4056504;86;21164;-85
2022/06/09 06:00:14;;;;;;;30.08;20.70;;;;;;;16.99;100.00;98238.64;4052001;85;21043;-86
2022/06/09 06:06:34;;;;;;;44.18;24.63;;;;;;;17.01;100.00;98237.58;4077914;85;21617;-86
2022/06/09 06:12:36;;;;;;;31.52;20.85;;;;;;;17.10;100.00;98245.42;4064177;85;21120;-86
2022/06/09 06:19:06;;;;;;;42.13;25.52;;;;;;;17.10;100.00;98253.72;4049712;86;21062;-86
2022/06/09 06:25:09;;;;;;;40.95;24.90;;;;;;;17.16;100.00;98258.13;4055298;86;21970;-85
2022/06/09 06:31:12;;;;;;;55.90;29.12;;;;;;;17.21;100.00;98241.77;4047927;86;21099;-86
2022/06/09 06:37:13;;;;;;;54.60;30.27;;;;;;;17.31;100.00;98244.66;4050457;86;21050;-85
2022/06/09 06:43:47;;;;;;;42.80;26.00;;;;;;;17.39;100.00;98248.80;4049697;86;21110;-85
2022/06/09 06:49:59;;;;;;;29.18;20.05;;;;;;;17.48;100.00;98246.22;4066414;86;20996;-85
2022/06/09 06:56:00;;;;;;;30.37;18.70;;;;;;;17.65;100.00;98242.92;4051934;86;21063;-85
2022/06/09 07:02:03;;;;;;;42.62;26.02;;;;;;;17.80;100.00;98244.67;4069427;86;21078;-86
2022/06/09 07:08:05;;;;;;;45.28;26.30;;;;;;;17.91;100.00;98248.69;4056085;86;21093;-86
2022/06/09 07:14:20;;;;;;;52.65;32.23;;;;;;;18.00;100.00;98241.88;4045724;86;21152;-85
2022/06/09 07:21:05;;;;;;;58.05;32.05;;;;;;;18.06;100.00;98248.42;4061864;86;21069;-86
2022/06/09 07:27:06;;;;;;;63.20;33.05;;;;;;;18.06;100.00;98243.48;4023317;86;21077;-87
2022/06/09 07:33:08;;;;;;;58.52;31.02;;;;;;;18.06;100.00;98239.33;4056923;86;21095;-86
2022/06/09 07:39:10;;;;;;;56.60;31.27;;;;;;;18.09;100.00;98246.14;4058075;86;21019;-86
2022/06/09 07:45:12;;;;;;;73.20;37.63;;;;;;;18.18;100.00;98244.11;4044697;86;21564;-85
2022/06/09 07:51:14;;;;;;;59.98;32.40;;;;;;;18.33;100.00;98245.20;4033991;86;21102;-86
2022/06/09 07:57:15;;;;;;;63.02;33.08;;;;;;;18.53;100.00;98235.47;4040577;86;22066;-86
2022/06/09 08:03:22;;;;;;;57.30;32.15;;;;;;;18.83;100.00;98242.39;4051574;86;21058;-87
2022/06/09 10:26:29;;;;;;;35.08;22.40;;;;;;;22.31;100.00;98261.02;4070212;84;2824572;-84
2022/06/09 10:32:45;;;;;;;28.47;19.30;;;;;;;22.97;99.63;98259.00;4055363;86;21034;-85
2022/06/09 10:38:51;;;;;;;30.72;20.10;;;;;;;23.29;98.55;98257.41;4056240;85;21049;-87
2022/06/09 10:45:22;;;;;;;25.63;17.90;;;;;;;23.67;91.68;98257.38;4059901;85;21029;-84
2022/06/09 11:04:53;;;;;;;22.65;17.25;;;;;;;24.88;92.75;98251.65;3987646;88;21144;-85
2022/06/09 11:11:22;;;;;;;25.52;18.80;;;;;;;24.97;91.48;98250.89;3929306;89;21091;-86
2022/06/09 11:17:32;;;;;;;25.32;18.87;;;;;;;25.36;89.69;98250.00;3965824;87;21755;-86
2022/06/09 11:24:15;;;;;;;26.42;17.80;;;;;;;25.65;87.11;98246.38;3961342;88;21081;-87
2022/06/09 11:31:04;;;;;;;23.95;17.30;;;;;;;25.67;86.75;98254.28;3940246;89;21112;-86
2022/06/09 11:37:21;;;;;;;22.75;18.15;;;;;;;25.93;86.09;98242.46;3899342;89;21099;-86
2022/06/09 11:43:48;;;;;;;22.95;17.25;;;;;;;26.46;84.66;98231.45;3896045;89;21148;-87
2022/06/09 11:49:56;;;;;;;18.57;15.72;;;;;;;26.82;83.18;98227.88;3896755;90;21164;-86
2022/06/09 11:56:33;;;;;;;19.15;15.60;;;;;;;27.37;81.98;98218.33;3894162;90;21160;-87
2022/06/09 12:03:10;;;;;;;16.12;12.55;;;;;;;27.58;79.49;98223.86;3905705;90;21080;-87
2022/06/09 12:10:07;;;;;;;13.58;12.18;;;;;;;27.52;79.16;98207.63;3895508;89;21043;-87
2022/06/09 12:16:38;;;;;;;15.28;12.30;;;;;;;27.58;77.83;98178.88;3893612;90;21140;-88
2022/06/09 12:22:45;;;;;;;23.77;14.00;;;;;;;27.25;75.66;98156.95;3953057;88;61907;-87
2022/06/09 12:28:56;;;;;;;15.55;11.93;;;;;;;26.92;74.40;98179.30;3949305;88;21084;-85
2022/06/09 12:34:58;;;;;;;17.17;13.83;;;;;;;26.81;72.90;98192.63;3949721;88;21036;-86
2022/06/09 12:41:11;;;;;;;19.77;14.93;;;;;;;26.23;72.64;98198.12;3946759;88;21109;-87
2022/06/09 12:47:22;;;;;;;18.85;14.80;;;;;;;25.79;72.68;98198.49;3944317;88;21075;-87
2022/06/09 12:53:39;;;;;;;17.90;13.83;;;;;;;25.30;72.79;98219.10;3941213;88;21061;-87
2022/06/09 12:59:42;;;;;;;16.37;14.28;;;;;;;25.00;72.87;98222.53;3943954;88;21104;-86
2022/06/09 13:05:43;;;;;;;17.30;14.00;;;;;;;24.81;72.86;98214.28;3949739;88;22094;-86
2022/06/09 13:18:28;;;;;;;19.65;15.38;;;;;;;24.70;73.06;98182.70;3950609;88;21079;-87
2022/06/09 13:24:35;;;;;;;22.17;17.73;;;;;;;24.55;73.13;98191.14;3942107;88;21676;-86
2022/06/09 13:30:51;;;;;;;18.52;16.15;;;;;;;24.43;73.08;98219.44;3935100;89;21145;-86
2022/06/09 13:37:01;;;;;;;20.10;16.43;;;;;;;24.43;73.34;98228.59;3931331;89;21488;-86
2022/06/09 13:43:02;;;;;;;21.00;15.80;;;;;;;24.34;74.04;98211.14;3938116;89;21160;-86
2022/06/09 13:49:08;;;;;;;24.63;18.12;;;;;;;24.35;73.77;98213.45;3988263;86;21924;-85
2022/06/09 13:55:23;;;;;;;20.57;15.08;;;;;;;24.26;73.45;98218.39;4024572;85;21009;-86
2022/06/09 14:01:24;;;;;;;24.40;18.98;;;;;;;24.04;73.79;98216.66;4024805;86;21085;-86
2022/06/09 14:07:27;;;;;;;24.35;18.00;;;;;;;23.83;74.31;98230.36;4028993;85;21063;-87
2022/06/09 14:13:28;;;;;;;22.70;16.97;;;;;;;23.74;74.03;98245.19;4025244;86;21113;-86
2022/06/09 14:19:30;;;;;;;26.70;18.55;;;;;;;23.44;74.99;98248.43;4036477;86;21050;-86
2022/06/09 14:25:31;;;;;;;25.97;20.05;;;;;;;23.24;76.09;98243.42;3973449;87;21417;-87
2022/06/09 14:31:34;;;;;;;23.42;19.27;;;;;;;23.01;77.32;98265.95;3984215;87;21126;-87
2022/06/09 14:37:36;;;;;;;25.77;20.92;;;;;;;22.76;78.56;98257.25;4022351;86;21989;-89
2022/06/09 14:43:39;;;;;;;27.65;20.95;;;;;;;22.53;79.64;98236.47;3961463;87;21138;-87
2022/06/09 14:49:40;;;;;;;33.00;22.87;;;;;;;22.30;80.66;98223.20;4038466;85;21049;-88
2022/06/09 14:55:43;;;;;;;30.60;22.87;;;;;;;22.12;81.77;98205.80;4022163;86;21029;-88
2022/06/09 15:01:45;;;;;;;26.57;21.33;;;;;;;21.91;82.91;98210.35;3985344;87;21039;-87
2022/06/09 15:07:49;;;;;;;27.20;23.45;;;;;;;21.83;83.77;98235.63;4024319;85;21073;-88
2022/06/09 15:13:51;;;;;;;31.00;23.15;;;;;;;21.64;84.96;98268.26;4025149;86;21053;-86
2022/06/09 15:19:53;;;;;;;31.15;24.45;;;;;;;21.56;85.94;98307.41;3986587;87;21022;-85
2022/06/09 15:25:56;;;;;;;32.53;27.02;;;;;;;21.45;86.75;98326.61;3998685;86;21098;-86
2022/06/09 15:31:57;;;;;;;33.80;25.12;;;;;;;21.32;87.80;98337.72;3985823;86;21031;-87
2022/06/09 15:37:59;;;;;;;31.85;23.15;;;;;;;21.23;88.46;98346.84;3986675;87;21067;-86
2022/06/09 15:44:01;;;;;;;35.65;25.37;;;;;;;21.10;88.56;98359.31;3992302;87;21110;-88
2022/06/09 15:50:04;;;;;;;30.25;22.65;;;;;;;20.91;89.66;98363.24;3987113;87;21821;-87
2022/06/09 15:56:07;;;;;;;33.42;23.55;;;;;;;20.82;90.28;98343.14;3987196;86;21534;-87
2022/06/09 16:02:10;;;;;;;22.27;17.45;;;;;;;20.72;90.46;98346.36;3987965;86;21082;-86
2022/06/09 16:08:11;;;;;;;24.43;17.20;;;;;;;20.52;90.94;98341.16;3988190;87;21557;-86
2022/06/09 16:14:12;;;;;;;18.05;13.00;;;;;;;20.36;91.43;98359.45;3989859;86;21653;-85
2022/06/09 16:20:19;;;;;;;19.42;12.63;;;;;;;20.26;91.93;98395.98;3989640;87;21137;-86
2022/06/09 16:26:20;;;;;;;16.95;11.30;;;;;;;20.08;92.12;98427.17;3982809;87;21132;-85
2022/06/09 16:32:22;;;;;;;14.38;10.50;;;;;;;19.89;91.99;98431.80;3989463;87;21073;-87
2022/06/09 16:38:23;;;;;;;14.10;11.55;;;;;;;19.69;92.29;98424.38;3984052;87;21050;-86
2022/06/09 16:44:25;;;;;;;11.20;9.38;;;;;;;19.55;92.75;98433.19;3982984;87;21086;-86
2022/06/09 16:50:28;;;;;;;14.63;11.05;;;;;;;19.48;92.90;98441.74;3982603;87;21078;-86
2022/06/09 16:56:29;;;;;;;15.20;10.43;;;;;;;19.48;93.42;98447.30;3878298;86;9999663;-86
2022/06/09 17:02:30;;;;;;;11.97;8.98;;;;;;;19.33;93.84;98453.16;3989854;86;21079;-86
2022/06/09 17:08:36;;;;;;;13.88;8.80;;;;;;;19.16;94.43;98446.75;3990280;86;21062;-87
2022/06/09 17:14:38;;;;;;;14.80;8.50;;;;;;;19.14;94.93;98447.20;3994930;86;21003;-86
2022/06/09 17:20:40;;;;;;;12.78;6.67;;;;;;;19.06;95.32;98450.03;3994068;86;21080;-87
2022/06/09 17:26:41;;;;;;;7.90;6.60;;;;;;;18.94;95.37;98466.06;4017755;85;21133;-86
2022/06/09 17:32:43;;;;;;;8.65;6.28;;;;;;;18.81;95.77;98472.20;4001736;87;21037;-86
2022/06/09 17:38:56;;;;;;;9.08;6.85;;;;;;;18.69;95.84;98471.58;4010925;86;21091;-87
2022/06/09 17:45:06;;;;;;;11.18;7.60;;;;;;;18.57;96.24;98480.03;4004140;87;21602;-87
2022/06/09 17:51:09;;;;;;;11.05;7.25;;;;;;;18.48;96.54;98490.99;3982362;87;21463;-87
2022/06/09 17:57:10;;;;;;;11.22;7.28;;;;;;;18.45;96.84;98509.09;4002489;87;21755;-87
2022/06/09 18:03:13;;;;;;;8.85;6.97;;;;;;;18.38;96.98;98513.47;4006286;87;21713;-87
2022/06/09 18:09:14;;;;;;;12.90;6.80;;;;;;;18.32;97.11;98520.11;4001163;87;21118;-87
2022/06/09 18:15:16;;;;;;;13.00;9.08;;;;;;;18.27;97.83;98513.73;4010930;86;21054;-87
2022/06/09 18:21:20;;;;;;;14.87;8.63;;;;;;;18.27;98.05;98530.95;4000795;87;21470;-87
2022/06/09 18:27:21;;;;;;;16.23;9.63;;;;;;;18.20;98.43;98537.47;3998236;87;21114;-86
2022/06/09 18:33:23;;;;;;;15.08;10.50;;;;;;;18.13;98.32;98548.75;4008756;85;21173;-87
2022/06/09 18:39:24;;;;;;;12.95;10.08;;;;;;;18.09;98.74;98563.88;4022872;86;21018;-86
2022/06/09 18:45:26;;;;;;;18.10;11.78;;;;;;;18.05;99.04;98569.53;4015941;87;21101;-86
2022/06/09 18:51:28;;;;;;;15.83;11.00;;;;;;;17.94;98.94;98570.40;4007257;87;21530;-86
2022/06/09 18:57:30;;;;;;;16.73;10.38;;;;;;;17.95;99.42;98571.16;3999107;87;21067;-85
2022/06/09 19:03:31;;;;;;;12.07;9.55;;;;;;;17.92;99.49;98583.10;4014790;87;22169;-86
2022/06/09 19:09:36;;;;;;;13.58;9.28;;;;;;;17.81;99.35;98585.35;4006598;87;21027;-86
2022/06/09 19:15:37;;;;;;;14.87;9.18;;;;;;;17.66;99.28;98602.92;4001149;87;21106;-86
2022/06/09 19:21:38;;;;;;;18.37;10.65;;;;;;;17.60;100.00;98603.27;4009959;87;22013;-86
2022/06/09 19:27:39;;;;;;;21.45;11.25;;;;;;;17.61;100.00;98608.97;3992347;87;21075;-85
2022/06/09 19:33:41;;;;;;;19.73;11.12;;;;;;;17.51;100.00;98625.20;3991575;87;21035;-85
2022/06/09 19:39:42;;;;;;;17.42;10.65;;;;;;;17.47;100.00;98623.13;3987264;87;21050;-86
2022/06/09 19:45:44;;;;;;;21.42;12.20;;;;;;;17.44;100.00;98634.23;3990728;86;22039;-86
2022/06/09 19:51:45;;;;;;;15.03;11.25;;;;;;;17.47;100.00;98634.80;4012113;86;21063;-84
2022/06/09 19:57:48;;;;;;;13.58;10.45;;;;;;;17.44;100.00;98638.39;3992556;87;21576;-87
2022/06/09 20:03:49;;;;;;;17.90;11.78;;;;;;;17.36;100.00;98639.16;3989598;87;21154;-86
2022/06/09 20:09:50;;;;;;;18.73;12.40;;;;;;;17.37;100.00;98641.33;3987360;87;21954;-85
2022/06/09 20:15:52;;;;;;;17.65;11.38;;;;;;;17.38;100.00;98645.64;4024058;86;21050;-87
2022/06/09 20:21:55;;;;;;;13.13;10.90;;;;;;;17.36;100.00;98639.16;4014524;86;21995;-86
2022/06/09 20:27:59;;;;;;;22.65;11.83;;;;;;;17.32;100.00;98642.59;4017585;86;21061;-86
2022/06/09 20:34:01;;;;;;;14.20;11.22;;;;;;;17.24;100.00;98641.96;3986257;87;21530;-87
2022/06/09 20:40:04;;;;;;;17.27;10.18;;;;;;;17.21;100.00;98648.34;4011695;86;21059;-87
2022/06/09 20:46:20;;;;;;;12.37;10.43;;;;;;;17.17;100.00;98657.93;4012051;86;21018;-87
2022/06/09 20:52:22;;;;;;;19.13;12.20;;;;;;;17.16;100.00;98666.82;3984945;87;20987;-87
2022/06/09 20:58:24;;;;;;;17.30;11.73;;;;;;;16.98;100.00;98665.03;4019075;86;21086;-86
2022/06/09 21:04:26;;;;;;;19.45;14.00;;;;;;;17.02;100.00;98656.67;4020775;86;21073;-87
2022/06/09 21:23:10;;;;;;;32.42;21.40;;;;;;;16.87;100.00;98701.78;4017187;86;21053;-86
2022/06/09 21:29:12;;;;;;;31.07;20.62;;;;;;;16.86;100.00;98714.64;4016054;87;21027;-85
2022/06/09 21:35:54;;;;;;;25.50;20.00;;;;;;;16.79;100.00;98723.05;4103580;85;21118;-86
2022/06/09 21:42:10;;;;;;;26.60;18.85;;;;;;;16.72;100.00;98741.95;4099792;86;21042;-86
2022/06/09 21:48:17;;;;;;;26.97;19.67;;;;;;;16.69;100.00;98737.86;4106708;85;21047;-86
2022/06/09 22:08:28;;;;;;;27.62;19.67;;;;;;;16.33;100.00;98752.05;4097982;85;21693;-86
2022/06/09 22:14:37;;;;;;;26.55;19.42;;;;;;;16.21;100.00;98758.16;4124055;85;21070;-85
2022/06/09 22:20:54;;;;;;;31.42;18.32;;;;;;;16.16;100.00;98760.77;4100896;85;21026;-85
2022/06/09 22:34:08;;;;;;;31.45;17.52;;;;;;;16.29;100.00;98769.25;4005544;86;21014;-85
2022/06/09 22:41:18;;;;;;;20.60;13.98;;;;;;;16.24;100.00;98765.61;3997896;87;21074;-85
2022/06/09 22:47:22;;;;;;;23.12;18.30;;;;;;;16.28;100.00;98771.25;3989469;87;22172;-86
2022/06/09 22:53:25;;;;;;;21.57;15.30;;;;;;;16.38;100.00;98774.44;3989691;87;21539;-87
2022/06/09 23:00:02;;;;;;;25.40;16.02;;;;;;;16.35;100.00;98779.42;4082337;86;22025;-85
2022/06/09 23:06:26;;;;;;;19.43;16.00;;;;;;;16.43;100.00;98789.75;4011542;87;21103;-86
2022/06/09 23:20:00;;;;;;;20.08;15.35;;;;;;;16.41;100.00;98805.98;4007546;88;22067;-86
2022/06/09 23:33:26;;;;;;;23.38;17.15;;;;;;;16.51;100.00;98816.89;3955452;87;21017;-86
2022/06/09 23:40:18;;;;;;;21.17;16.70;;;;;;;16.53;100.00;98834.44;3992698;89;21097;-85
2022/06/09 23:46:44;;;;;;;25.70;18.75;;;;;;;16.55;100.00;98841.72;3930416;90;21200;-86
2022/06/09 23:53:18;;;;;;;32.90;20.77;;;;;;;16.61;100.00;98844.19;3995672;89;21033;-86
2022/06/09 23:59:26;;;;;;;26.60;18.35;;;;;;;16.62;100.00;98851.27;3938930;88;21665;-85
